sensor_id;sensor_type;location;lat;lon;timestamp;P1;durP1;ratioP1;P2;durP2;ratioP2
7247;SDS011;3665;51.034;13.642;2023-02-01T00:16:46;7.87;;;3.73;;
7247;SDS011;3665;51.034;13.642;2023-02-01T00:21:47;5.47;;;3.40;;
7247;SDS011;3665;51.034;13.642;2023-02-01T00:32:29;6.07;;;3.67;;
7247;SDS011;3665;51.034;13.642;2023-02-01T00:37:16;5.93;;;3.40;;
7247;SDS011;3665;51.034;13.642;2023-02-01T00:48:13;10.87;;;3.50;;
7247;SDS011;3665;51.034;13.642;2023-02-01T00:58:37;6.87;;;3.20;;
7247;SDS011;3665;51.034;13.642;2023-02-01T01:04:00;6.63;;;3.07;;
7247;SDS011;3665;51.034;13.642;2023-02-01T01:09:16;7.57;;;2.80;;
7247;SDS011;3665;51.034;13.642;2023-02-01T01:14:20;5.90;;;2.80;;
7247;SDS011;3665;51.034;13.642;2023-02-01T01:19:28;6.17;;;2.53;;
7247;SDS011;3665;51.034;13.642;2023-02-01T01:30:04;7.70;;;2.90;;
7247;SDS011;3665;51.034;13.642;2023-02-01T01:35:09;4.43;;;2.17;;
7247;SDS011;3665;51.034;13.642;2023-02-01T01:39:55;5.30;;;3.20;;
7247;SDS011;3665;51.034;13.642;2023-02-01T01:45:01;4.47;;;2.70;;
7247;SDS011;3665;51.034;13.642;2023-02-01T01:50:03;6.63;;;2.97;;
7247;SDS011;3665;51.034;13.642;2023-02-01T01:55:09;9.93;;;2.73;;
7247;SDS011;3665;51.034;13.642;2023-02-01T02:00:04;5.33;;;2.73;;
7247;SDS011;3665;51.034;13.642;2023-02-01T02:05:17;9.40;;;2.83;;
7247;SDS011;3665;51.034;13.642;2023-02-01T02:10:54;6.50;;;2.10;;
7247;SDS011;3665;51.034;13.642;2023-02-01T02:28:45;14.57;;;3.03;;
7247;SDS011;3665;51.034;13.642;2023-02-01T02:34:22;5.47;;;2.50;;
7247;SDS011;3665;51.034;13.642;2023-02-01T02:39:45;6.33;;;3.00;;
7247;SDS011;3665;51.034;13.642;2023-02-01T02:45:02;7.57;;;3.00;;
7247;SDS011;3665;51.034;13.642;2023-02-01T02:50:23;5.30;;;2.70;;
7247;SDS011;3665;51.034;13.642;2023-02-01T02:55:40;5.83;;;2.80;;
7247;SDS011;3665;51.034;13.642;2023-02-01T03:00:41;5.70;;;2.40;;
7247;SDS011;3665;51.034;13.642;2023-02-01T03:11:28;8.17;;;2.20;;
7247;SDS011;3665;51.034;13.642;2023-02-01T03:24:48;7.53;;;2.70;;
7247;SDS011;3665;51.034;13.642;2023-02-01T03:29:50;8.13;;;2.70;;
7247;SDS011;3665;51.034;13.642;2023-02-01T03:35:07;6.77;;;2.47;;
7247;SDS011;3665;51.034;13.642;2023-02-01T03:40:37;6.17;;;2.40;;
7247;SDS011;3665;51.034;13.642;2023-02-01T03:57:38;7.43;;;2.80;;
7247;SDS011;3665;51.034;13.642;2023-02-01T04:08:20;11.03;;;2.47;;
7247;SDS011;3665;51.034;13.642;2023-02-01T04:18:58;6.43;;;1.97;;
7247;SDS011;3665;51.034;13.642;2023-02-01T04:24:30;7.93;;;2.40;;
7247;SDS011;3665;51.034;13.642;2023-02-01T04:34:36;7.77;;;2.50;;
7247;SDS011;3665;51.034;13.642;2023-02-01T04:41:04;6.50;;;2.30;;
7247;SDS011;3665;51.034;13.642;2023-02-01T04:51:27;6.73;;;2.27;;
7247;SDS011;3665;51.034;13.642;2023-02-01T04:56:11;10.43;;;2.87;;
7247;SDS011;3665;51.034;13.642;2023-02-01T05:00:55;7.87;;;2.60;;
7247;SDS011;3665;51.034;13.642;2023-02-01T05:05:48;8.43;;;2.40;;
7247;SDS011;3665;51.034;13.642;2023-02-01T05:10:35;8.17;;;2.13;;
7247;SDS011;3665;51.034;13.642;2023-02-01T05:15:23;5.73;;;2.10;;
7247;SDS011;3665;51.034;13.642;2023-02-01T05:20:09;6.20;;;2.57;;
7247;SDS011;3665;51.034;13.642;2023-02-01T05:25:02;4.03;;;2.67;;
7247;SDS011;3665;51.034;13.642;2023-02-01T05:29:50;11.47;;;2.47;;
7247;SDS011;3665;51.034;13.642;2023-02-01T05:34:36;7.37;;;2.33;;
7247;SDS011;3665;51.034;13.642;2023-02-01T05:39:25;11.80;;;2.33;;
7247;SDS011;3665;51.034;13.642;2023-02-01T05:44:15;7.13;;;2.30;;
7247;SDS011;3665;51.034;13.642;2023-02-01T05:49:02;5.13;;;2.20;;
7247;SDS011;3665;51.034;13.642;2023-02-01T05:53:49;10.67;;;2.30;;
7247;SDS011;3665;51.034;13.642;2023-02-01T05:58:38;10.53;;;3.13;;
7247;SDS011;3665;51.034;13.642;2023-02-01T06:03:25;10.80;;;2.57;;
7247;SDS011;3665;51.034;13.642;2023-02-01T06:08:13;8.30;;;2.87;;
7247;SDS011;3665;51.034;13.642;2023-02-01T06:12:58;9.00;;;2.60;;
7247;SDS011;3665;51.034;13.642;2023-02-01T06:17:49;9.60;;;2.63;;
7247;SDS011;3665;51.034;13.642;2023-02-01T06:22:35;14.70;;;2.90;;
7247;SDS011;3665;51.034;13.642;2023-02-01T06:27:25;8.10;;;2.63;;
7247;SDS011;3665;51.034;13.642;2023-02-01T06:32:12;8.27;;;2.87;;
7247;SDS011;3665;51.034;13.642;2023-02-01T06:37:01;11.33;;;2.97;;
7247;SDS011;3665;51.034;13.642;2023-02-01T06:41:47;7.07;;;2.50;;
7247;SDS011;3665;51.034;13.642;2023-02-01T06:46:37;9.37;;;2.97;;
7247;SDS011;3665;51.034;13.642;2023-02-01T06:51:24;8.17;;;2.57;;
7247;SDS011;3665;51.034;13.642;2023-02-01T06:56:12;5.87;;;2.60;;
7247;SDS011;3665;51.034;13.642;2023-02-01T07:01:05;8.70;;;3.23;;
7247;SDS011;3665;51.034;13.642;2023-02-01T07:05:53;8.83;;;3.10;;
7247;SDS011;3665;51.034;13.642;2023-02-01T07:10:51;10.80;;;3.03;;
7247;SDS011;3665;51.034;13.642;2023-02-01T07:15:43;6.87;;;2.63;;
7247;SDS011;3665;51.034;13.642;2023-02-01T07:20:28;6.60;;;2.57;;
7247;SDS011;3665;51.034;13.642;2023-02-01T07:25:15;11.40;;;3.00;;
7247;SDS011;3665;51.034;13.642;2023-02-01T07:30:00;9.63;;;3.30;;
7247;SDS011;3665;51.034;13.642;2023-02-01T07:34:52;10.23;;;3.07;;
7247;SDS011;3665;51.034;13.642;2023-02-01T07:39:42;10.30;;;3.83;;
7247;SDS011;3665;51.034;13.642;2023-02-01T07:44:27;6.13;;;3.07;;
7247;SDS011;3665;51.034;13.642;2023-02-01T07:49:13;8.10;;;2.93;;
7247;SDS011;3665;51.034;13.642;2023-02-01T07:54:04;8.83;;;3.37;;
7247;SDS011;3665;51.034;13.642;2023-02-01T07:58:51;5.53;;;2.77;;
7247;SDS011;3665;51.034;13.642;2023-02-01T08:03:41;8.80;;;3.20;;
7247;SDS011;3665;51.034;13.642;2023-02-01T08:08:28;5.80;;;2.53;;
7247;SDS011;3665;51.034;13.642;2023-02-01T08:13:16;7.93;;;3.50;;
7247;SDS011;3665;51.034;13.642;2023-02-01T08:18:04;10.40;;;3.43;;
7247;SDS011;3665;51.034;13.642;2023-02-01T08:22:52;7.73;;;3.13;;
7247;SDS011;3665;51.034;13.642;2023-02-01T08:27:40;10.77;;;2.77;;
7247;SDS011;3665;51.034;13.642;2023-02-01T08:32:30;8.37;;;3.03;;
7247;SDS011;3665;51.034;13.642;2023-02-01T08:37:16;6.87;;;3.27;;
7247;SDS011;3665;51.034;13.642;2023-02-01T08:42:06;5.80;;;2.50;;
7247;SDS011;3665;51.034;13.642;2023-02-01T08:47:07;12.10;;;3.23;;
7247;SDS011;3665;51.034;13.642;2023-02-01T08:51:58;20.63;;;9.60;;
7247;SDS011;3665;51.034;13.642;2023-02-01T08:56:53;12.47;;;5.53;;
7247;SDS011;3665;51.034;13.642;2023-02-01T09:01:49;12.10;;;3.03;;
7247;SDS011;3665;51.034;13.642;2023-02-01T09:06:36;10.30;;;3.43;;
7247;SDS011;3665;51.034;13.642;2023-02-01T09:11:21;11.57;;;3.10;;
7247;SDS011;3665;51.034;13.642;2023-02-01T09:16:11;5.93;;;2.30;;
7247;SDS011;3665;51.034;13.642;2023-02-01T09:21:04;6.90;;;2.83;;
7247;SDS011;3665;51.034;13.642;2023-02-01T09:25:48;7.73;;;2.43;;
7247;SDS011;3665;51.034;13.642;2023-02-01T09:30:39;5.70;;;3.10;;
7247;SDS011;3665;51.034;13.642;2023-02-01T09:35:25;9.90;;;2.90;;
7247;SDS011;3665;51.034;13.642;2023-02-01T09:40:12;12.30;;;2.87;;
7247;SDS011;3665;51.034;13.642;2023-02-01T09:45:18;6.60;;;2.90;;
7247;SDS011;3665;51.034;13.642;2023-02-01T09:50:19;7.23;;;3.20;;
7247;SDS011;3665;51.034;13.642;2023-02-01T09:55:10;9.00;;;2.93;;
7247;SDS011;3665;51.034;13.642;2023-02-01T10:00:16;6.37;;;2.67;;
7247;SDS011;3665;51.034;13.642;2023-02-01T10:05:34;5.07;;;2.73;;
7247;SDS011;3665;51.034;13.642;2023-02-01T10:10:53;8.63;;;3.50;;
7247;SDS011;3665;51.034;13.642;2023-02-01T10:16:02;6.40;;;2.77;;
7247;SDS011;3665;51.034;13.642;2023-02-01T10:21:01;5.83;;;3.33;;
7247;SDS011;3665;51.034;13.642;2023-02-01T10:26:09;9.27;;;3.00;;
7247;SDS011;3665;51.034;13.642;2023-02-01T10:31:08;8.70;;;3.13;;
7247;SDS011;3665;51.034;13.642;2023-02-01T10:36:00;8.10;;;3.87;;
7247;SDS011;3665;51.034;13.642;2023-02-01T10:41:36;5.63;;;3.50;;
7247;SDS011;3665;51.034;13.642;2023-02-01T10:46:54;9.87;;;3.50;;
7247;SDS011;3665;51.034;13.642;2023-02-01T10:51:42;6.60;;;3.63;;
7247;SDS011;3665;51.034;13.642;2023-02-01T10:56:29;10.93;;;3.90;;
7247;SDS011;3665;51.034;13.642;2023-02-01T11:01:20;12.60;;;3.83;;
7247;SDS011;3665;51.034;13.642;2023-02-01T11:06:36;7.83;;;3.47;;
7247;SDS011;3665;51.034;13.642;2023-02-01T11:17:02;10.33;;;3.47;;
7247;SDS011;3665;51.034;13.642;2023-02-01T11:22:24;8.60;;;4.53;;
7247;SDS011;3665;51.034;13.642;2023-02-01T11:27:24;10.53;;;3.23;;
7247;SDS011;3665;51.034;13.642;2023-02-01T11:32:33;8.27;;;2.97;;
7247;SDS011;3665;51.034;13.642;2023-02-01T11:37:52;5.93;;;2.33;;
7247;SDS011;3665;51.034;13.642;2023-02-01T11:43:14;10.93;;;2.63;;
7247;SDS011;3665;51.034;13.642;2023-02-01T11:48:44;7.53;;;2.60;;
7247;SDS011;3665;51.034;13.642;2023-02-01T12:01:07;5.17;;;2.40;;
7247;SDS011;3665;51.034;13.642;2023-02-01T12:06:51;11.03;;;2.77;;
7247;SDS011;3665;51.034;13.642;2023-02-01T12:12:34;5.70;;;2.27;;
7247;SDS011;3665;51.034;13.642;2023-02-01T12:23:49;5.60;;;2.17;;
7247;SDS011;3665;51.034;13.642;2023-02-01T12:36:14;6.13;;;2.50;;
7247;SDS011;3665;51.034;13.642;2023-02-01T12:47:32;6.53;;;2.60;;
7247;SDS011;3665;51.034;13.642;2023-02-01T12:58:54;7.93;;;2.57;;
7247;SDS011;3665;51.034;13.642;2023-02-01T13:09:41;6.27;;;2.40;;
7247;SDS011;3665;51.034;13.642;2023-02-01T13:14:54;8.07;;;2.50;;
7247;SDS011;3665;51.034;13.642;2023-02-01T13:25:49;4.17;;;2.23;;
7247;SDS011;3665;51.034;13.642;2023-02-01T13:31:10;5.53;;;2.20;;
7247;SDS011;3665;51.034;13.642;2023-02-01T13:36:47;5.57;;;1.93;;
7247;SDS011;3665;51.034;13.642;2023-02-01T13:54:04;6.43;;;2.30;;
7247;SDS011;3665;51.034;13.642;2023-02-01T14:05:58;4.90;;;2.13;;
7247;SDS011;3665;51.034;13.642;2023-02-01T14:17:52;6.47;;;1.97;;
7247;SDS011;3665;51.034;13.642;2023-02-01T14:23:01;6.07;;;1.90;;
7247;SDS011;3665;51.034;13.642;2023-02-01T14:28:30;8.30;;;2.50;;
7247;SDS011;3665;51.034;13.642;2023-02-01T14:34:48;8.13;;;2.70;;
7247;SDS011;3665;51.034;13.642;2023-02-01T14:40:27;5.13;;;2.33;;
7247;SDS011;3665;51.034;13.642;2023-02-01T14:50:53;6.60;;;2.30;;
7247;SDS011;3665;51.034;13.642;2023-02-01T15:08:35;4.20;;;2.00;;
7247;SDS011;3665;51.034;13.642;2023-02-01T15:33:56;7.83;;;3.10;;
7247;SDS011;3665;51.034;13.642;2023-02-01T15:39:23;5.03;;;2.47;;
7247;SDS011;3665;51.034;13.642;2023-02-01T15:44:14;7.00;;;2.80;;
7247;SDS011;3665;51.034;13.642;2023-02-01T15:49:27;5.57;;;2.67;;
7247;SDS011;3665;51.034;13.642;2023-02-01T15:54:30;4.60;;;2.93;;
7247;SDS011;3665;51.034;13.642;2023-02-01T15:59:44;7.67;;;2.80;;
7247;SDS011;3665;51.034;13.642;2023-02-01T16:05:31;5.93;;;3.03;;
7247;SDS011;3665;51.034;13.642;2023-02-01T16:10:27;6.80;;;4.13;;
7247;SDS011;3665;51.034;13.642;2023-02-01T16:15:35;5.53;;;2.93;;
7247;SDS011;3665;51.034;13.642;2023-02-01T16:20:41;4.73;;;3.20;;
7247;SDS011;3665;51.034;13.642;2023-02-01T16:25:38;6.17;;;3.50;;
7247;SDS011;3665;51.034;13.642;2023-02-01T16:30:34;5.73;;;3.63;;
7247;SDS011;3665;51.034;13.642;2023-02-01T16:35:35;8.67;;;4.00;;
7247;SDS011;3665;51.034;13.642;2023-02-01T16:40:56;9.30;;;3.87;;
7247;SDS011;3665;51.034;13.642;2023-02-01T16:45:59;6.33;;;3.80;;
7247;SDS011;3665;51.034;13.642;2023-02-01T16:50:58;10.67;;;3.43;;
7247;SDS011;3665;51.034;13.642;2023-02-01T16:56:20;8.60;;;3.50;;
7247;SDS011;3665;51.034;13.642;2023-02-01T17:01:28;7.00;;;3.70;;
7247;SDS011;3665;51.034;13.642;2023-02-01T17:06:40;6.97;;;3.20;;
7247;SDS011;3665;51.034;13.642;2023-02-01T17:11:50;2.33;;;1.10;;
7247;SDS011;3665;51.034;13.642;2023-02-01T17:16:49;0.70;;;0.70;;
7247;SDS011;3665;51.034;13.642;2023-02-01T17:21:38;0.70;;;0.70;;
7247;SDS011;3665;51.034;13.642;2023-02-01T17:26:24;0.93;;;0.70;;
7247;SDS011;3665;51.034;13.642;2023-02-01T17:42:24;1.50;;;1.27;;
7247;SDS011;3665;51.034;13.642;2023-02-01T17:47:31;2.53;;;1.00;;
7247;SDS011;3665;51.034;13.642;2023-02-01T17:53:20;2.17;;;1.20;;
7247;SDS011;3665;51.034;13.642;2023-02-01T17:59:04;1.20;;;0.77;;
7247;SDS011;3665;51.034;13.642;2023-02-01T18:04:19;7.27;;;1.27;;
7247;SDS011;3665;51.034;13.642;2023-02-01T18:09:04;1.87;;;0.90;;
7247;SDS011;3665;51.034;13.642;2023-02-01T18:13:53;4.40;;;1.07;;
7247;SDS011;3665;51.034;13.642;2023-02-01T18:18:42;4.50;;;1.13;;
7247;SDS011;3665;51.034;13.642;2023-02-01T18:28:51;2.63;;;1.23;;
7247;SDS011;3665;51.034;13.642;2023-02-01T18:33:46;2.63;;;1.10;;
7247;SDS011;3665;51.034;13.642;2023-02-01T18:39:03;2.73;;;1.00;;
7247;SDS011;3665;51.034;13.642;2023-02-01T18:44:01;4.23;;;1.30;;
7247;SDS011;3665;51.034;13.642;2023-02-01T18:48:48;4.27;;;0.93;;
7247;SDS011;3665;51.034;13.642;2023-02-01T19:04:20;2.97;;;1.00;;
7247;SDS011;3665;51.034;13.642;2023-02-01T19:09:29;4.17;;;1.20;;
7247;SDS011;3665;51.034;13.642;2023-02-01T19:31:00;1.50;;;0.70;;
7247;SDS011;3665;51.034;13.642;2023-02-01T19:35:45;2.10;;;0.80;;
7247;SDS011;3665;51.034;13.642;2023-02-01T19:40:51;2.60;;;1.00;;
7247;SDS011;3665;51.034;13.642;2023-02-01T19:57:37;1.70;;;1.00;;
7247;SDS011;3665;51.034;13.642;2023-02-01T20:03:06;2.50;;;0.97;;
7247;SDS011;3665;51.034;13.642;2023-02-01T20:08:58;1.30;;;1.20;;
7247;SDS011;3665;51.034;13.642;2023-02-01T20:15:16;3.03;;;1.30;;
7247;SDS011;3665;51.034;13.642;2023-02-01T20:20:04;2.60;;;1.50;;
7247;SDS011;3665;51.034;13.642;2023-02-01T20:24:51;1.43;;;1.20;;
7247;SDS011;3665;51.034;13.642;2023-02-01T20:30:01;4.00;;;1.70;;
7247;SDS011;3665;51.034;13.642;2023-02-01T20:46:30;3.60;;;1.30;;
7247;SDS011;3665;51.034;13.642;2023-02-01T20:58:01;1.10;;;0.80;;
7247;SDS011;3665;51.034;13.642;2023-02-01T21:08:34;4.03;;;2.00;;
7247;SDS011;3665;51.034;13.642;2023-02-01T21:13:21;1.97;;;1.40;;
7247;SDS011;3665;51.034;13.642;2023-02-01T21:18:08;4.50;;;1.20;;
7247;SDS011;3665;51.034;13.642;2023-02-01T21:23:02;2.30;;;1.00;;
7247;SDS011;3665;51.034;13.642;2023-02-01T21:34:10;3.47;;;1.80;;
7247;SDS011;3665;51.034;13.642;2023-02-01T21:39:22;3.93;;;1.53;;
7247;SDS011;3665;51.034;13.642;2023-02-01T21:50:02;4.13;;;1.77;;
7247;SDS011;3665;51.034;13.642;2023-02-01T21:54:58;3.83;;;1.80;;
7247;SDS011;3665;51.034;13.642;2023-02-01T21:59:44;3.70;;;1.93;;
7247;SDS011;3665;51.034;13.642;2023-02-01T22:04:51;4.20;;;1.97;;
7247;SDS011;3665;51.034;13.642;2023-02-01T22:09:55;6.10;;;2.40;;
7247;SDS011;3665;51.034;13.642;2023-02-01T22:14:58;3.80;;;2.50;;
7247;SDS011;3665;51.034;13.642;2023-02-01T22:19:44;3.60;;;2.30;;
7247;SDS011;3665;51.034;13.642;2023-02-01T22:24:34;3.90;;;2.60;;
7247;SDS011;3665;51.034;13.642;2023-02-01T22:29:40;6.83;;;2.70;;
7247;SDS011;3665;51.034;13.642;2023-02-01T22:34:27;4.30;;;2.20;;
7247;SDS011;3665;51.034;13.642;2023-02-01T22:39:12;6.90;;;2.30;;
7247;SDS011;3665;51.034;13.642;2023-02-01T22:44:22;3.40;;;2.50;;
7247;SDS011;3665;51.034;13.642;2023-02-01T22:49:41;5.80;;;2.67;;
7247;SDS011;3665;51.034;13.642;2023-02-01T22:54:29;5.60;;;2.40;;
7247;SDS011;3665;51.034;13.642;2023-02-01T23:17:09;4.50;;;2.00;;
7247;SDS011;3665;51.034;13.642;2023-02-01T23:42:00;4.70;;;1.77;;
7247;SDS011;3665;51.034;13.642;2023-02-01T23:48:40;4.00;;;1.60;;
